sensor_id;sensor_type;location;lat;lon;timestamp;P1;durP1;ratioP1;P2;durP2;ratioP2
40669;SDS011;26355;45.528;9.234;2022-11-20T00:01:42;38.60;;;20.65;;
40669;SDS011;26355;45.528;9.234;2022-11-20T00:04:08;34.38;;;18.98;;
40669;SDS011;26355;45.528;9.234;2022-11-20T00:06:37;33.30;;;18.80;;
40669;SDS011;26355;45.528;9.234;2022-11-20T00:09:03;33.80;;;19.55;;
40669;SDS011;26355;45.528;9.234;2022-11-20T00:11:30;34.95;;;19.48;;
40669;SDS011;26355;45.528;9.234;2022-11-20T00:13:57;33.35;;;19.23;;
40669;SDS011;26355;45.528;9.234;2022-11-20T00:16:24;35.58;;;20.08;;
40669;SDS011;26355;45.528;9.234;2022-11-20T00:18:51;34.05;;;20.08;;
40669;SDS011;26355;45.528;9.234;2022-11-20T00:21:21;33.25;;;20.40;;
40669;SDS011;26355;45.528;9.234;2022-11-20T00:23:49;36.03;;;20.38;;
40669;SDS011;26355;45.528;9.234;2022-11-20T00:26:16;35.13;;;21.17;;
40669;SDS011;26355;45.528;9.234;2022-11-20T00:28:44;35.65;;;21.48;;
40669;SDS011;26355;45.528;9.234;2022-11-20T00:31:18;33.88;;;20.92;;
40669;SDS011;26355;45.528;9.234;2022-11-20T00:33:44;37.85;;;22.17;;
40669;SDS011;26355;45.528;9.234;2022-11-20T00:36:12;35.78;;;20.88;;
40669;SDS011;26355;45.528;9.234;2022-11-20T00:38:40;38.22;;;22.17;;
40669;SDS011;26355;45.528;9.234;2022-11-20T00:41:08;36.15;;;21.27;;
40669;SDS011;26355;45.528;9.234;2022-11-20T00:43:35;38.55;;;21.98;;
40669;SDS011;26355;45.528;9.234;2022-11-20T00:46:05;36.55;;;21.23;;
40669;SDS011;26355;45.528;9.234;2022-11-20T00:48:33;36.03;;;21.15;;
40669;SDS011;26355;45.528;9.234;2022-11-20T00:50:59;36.38;;;21.25;;
40669;SDS011;26355;45.528;9.234;2022-11-20T00:53:25;37.58;;;22.17;;
40669;SDS011;26355;45.528;9.234;2022-11-20T00:55:55;37.08;;;22.20;;
40669;SDS011;26355;45.528;9.234;2022-11-20T00:58:22;35.20;;;21.45;;
40669;SDS011;26355;45.528;9.234;2022-11-20T01:00:49;35.90;;;21.98;;
40669;SDS011;26355;45.528;9.234;2022-11-20T01:03:16;34.58;;;20.92;;
40669;SDS011;26355;45.528;9.234;2022-11-20T01:05:42;37.38;;;22.65;;
40669;SDS011;26355;45.528;9.234;2022-11-20T01:08:08;37.05;;;21.63;;
40669;SDS011;26355;45.528;9.234;2022-11-20T01:10:33;35.80;;;21.48;;
40669;SDS011;26355;45.528;9.234;2022-11-20T01:12:59;36.03;;;22.15;;
40669;SDS011;26355;45.528;9.234;2022-11-20T01:15:44;37.10;;;21.70;;
40669;SDS011;26355;45.528;9.234;2022-11-20T01:18:09;33.55;;;21.08;;
40669;SDS011;26355;45.528;9.234;2022-11-20T01:20:35;35.80;;;20.73;;
40669;SDS011;26355;45.528;9.234;2022-11-20T01:23:02;36.67;;;22.08;;
40669;SDS011;26355;45.528;9.234;2022-11-20T01:25:28;35.70;;;21.63;;
40669;SDS011;26355;45.528;9.234;2022-11-20T01:27:54;35.03;;;20.63;;
40669;SDS011;26355;45.528;9.234;2022-11-20T01:30:19;34.63;;;21.23;;
40669;SDS011;26355;45.528;9.234;2022-11-20T01:32:45;36.95;;;22.23;;
40669;SDS011;26355;45.528;9.234;2022-11-20T01:35:11;35.67;;;20.02;;
40669;SDS011;26355;45.528;9.234;2022-11-20T01:37:36;34.60;;;19.58;;
40669;SDS011;26355;45.528;9.234;2022-11-20T01:40:02;32.90;;;19.00;;
40669;SDS011;26355;45.528;9.234;2022-11-20T01:42:28;31.88;;;18.10;;
40669;SDS011;26355;45.528;9.234;2022-11-20T01:48:16;31.75;;;18.63;;
40669;SDS011;26355;45.528;9.234;2022-11-20T01:50:46;31.10;;;17.77;;
40669;SDS011;26355;45.528;9.234;2022-11-20T01:53:13;33.08;;;18.77;;
40669;SDS011;26355;45.528;9.234;2022-11-20T01:55:42;30.23;;;17.13;;
40669;SDS011;26355;45.528;9.234;2022-11-20T01:58:14;33.60;;;18.20;;
40669;SDS011;26355;45.528;9.234;2022-11-20T02:00:41;34.83;;;18.13;;
40669;SDS011;26355;45.528;9.234;2022-11-20T02:03:08;30.80;;;18.58;;
40669;SDS011;26355;45.528;9.234;2022-11-20T02:08:20;30.33;;;17.17;;
40669;SDS011;26355;45.528;9.234;2022-11-20T02:10:48;31.30;;;18.63;;
40669;SDS011;26355;45.528;9.234;2022-11-20T02:13:13;34.45;;;19.10;;
40669;SDS011;26355;45.528;9.234;2022-11-20T02:15:58;30.67;;;17.77;;
40669;SDS011;26355;45.528;9.234;2022-11-20T02:18:24;33.35;;;19.08;;
40669;SDS011;26355;45.528;9.234;2022-11-20T02:20:51;32.10;;;18.20;;
40669;SDS011;26355;45.528;9.234;2022-11-20T02:23:25;30.42;;;17.40;;
40669;SDS011;26355;45.528;9.234;2022-11-20T02:26:05;31.02;;;17.35;;
40669;SDS011;26355;45.528;9.234;2022-11-20T02:28:34;33.47;;;18.90;;
40669;SDS011;26355;45.528;9.234;2022-11-20T02:31:00;32.60;;;17.85;;
40669;SDS011;26355;45.528;9.234;2022-11-20T02:33:26;30.30;;;16.95;;
40669;SDS011;26355;45.528;9.234;2022-11-20T02:35:52;27.83;;;15.70;;
40669;SDS011;26355;45.528;9.234;2022-11-20T02:38:18;28.50;;;15.68;;
40669;SDS011;26355;45.528;9.234;2022-11-20T02:40:44;25.13;;;14.20;;
40669;SDS011;26355;45.528;9.234;2022-11-20T02:43:10;25.27;;;14.00;;
40669;SDS011;26355;45.528;9.234;2022-11-20T02:45:36;26.67;;;13.80;;
40669;SDS011;26355;45.528;9.234;2022-11-20T02:48:02;23.77;;;13.13;;
40669;SDS011;26355;45.528;9.234;2022-11-20T02:50:27;24.35;;;12.45;;
40669;SDS011;26355;45.528;9.234;2022-11-20T02:52:53;24.85;;;12.95;;
40669;SDS011;26355;45.528;9.234;2022-11-20T02:55:19;24.08;;;12.98;;
40669;SDS011;26355;45.528;9.234;2022-11-20T02:57:44;24.95;;;12.80;;
40669;SDS011;26355;45.528;9.234;2022-11-20T03:00:10;25.67;;;13.70;;
40669;SDS011;26355;45.528;9.234;2022-11-20T03:02:36;27.75;;;14.38;;
40669;SDS011;26355;45.528;9.234;2022-11-20T03:05:02;26.15;;;13.88;;
40669;SDS011;26355;45.528;9.234;2022-11-20T03:07:28;26.73;;;13.60;;
40669;SDS011;26355;45.528;9.234;2022-11-20T03:09:53;26.88;;;13.10;;
40669;SDS011;26355;45.528;9.234;2022-11-20T03:12:19;25.67;;;12.82;;
40669;SDS011;26355;45.528;9.234;2022-11-20T03:14:44;22.52;;;11.75;;
40669;SDS011;26355;45.528;9.234;2022-11-20T03:17:10;25.05;;;12.35;;
40669;SDS011;26355;45.528;9.234;2022-11-20T03:19:36;23.65;;;11.98;;
40669;SDS011;26355;45.528;9.234;2022-11-20T03:22:01;23.60;;;11.75;;
40669;SDS011;26355;45.528;9.234;2022-11-20T03:24:27;23.40;;;11.23;;
40669;SDS011;26355;45.528;9.234;2022-11-20T03:26:53;23.45;;;11.48;;
40669;SDS011;26355;45.528;9.234;2022-11-20T03:29:19;21.88;;;10.55;;
40669;SDS011;26355;45.528;9.234;2022-11-20T03:31:44;22.65;;;12.52;;
40669;SDS011;26355;45.528;9.234;2022-11-20T03:34:10;22.08;;;11.88;;
40669;SDS011;26355;45.528;9.234;2022-11-20T03:36:40;22.70;;;11.30;;
40669;SDS011;26355;45.528;9.234;2022-11-20T03:39:06;24.13;;;11.65;;
40669;SDS011;26355;45.528;9.234;2022-11-20T03:41:35;23.08;;;12.05;;
40669;SDS011;26355;45.528;9.234;2022-11-20T03:44:03;22.65;;;11.60;;
40669;SDS011;26355;45.528;9.234;2022-11-20T03:46:32;24.08;;;12.30;;
40669;SDS011;26355;45.528;9.234;2022-11-20T03:48:58;24.90;;;13.60;;
40669;SDS011;26355;45.528;9.234;2022-11-20T03:51:25;23.08;;;11.98;;
40669;SDS011;26355;45.528;9.234;2022-11-20T03:53:57;25.75;;;12.98;;
40669;SDS011;26355;45.528;9.234;2022-11-20T03:56:26;21.88;;;12.25;;
40669;SDS011;26355;45.528;9.234;2022-11-20T03:58:53;25.80;;;12.90;;
40669;SDS011;26355;45.528;9.234;2022-11-20T04:01:20;23.50;;;12.80;;
40669;SDS011;26355;45.528;9.234;2022-11-20T04:03:51;25.77;;;13.02;;
40669;SDS011;26355;45.528;9.234;2022-11-20T04:06:19;24.83;;;12.73;;
40669;SDS011;26355;45.528;9.234;2022-11-20T04:08:47;24.33;;;12.65;;
40669;SDS011;26355;45.528;9.234;2022-11-20T04:11:18;25.33;;;12.82;;
40669;SDS011;26355;45.528;9.234;2022-11-20T04:13:49;23.83;;;12.63;;
40669;SDS011;26355;45.528;9.234;2022-11-20T04:16:20;23.98;;;12.38;;
40669;SDS011;26355;45.528;9.234;2022-11-20T04:18:50;24.35;;;13.25;;
40669;SDS011;26355;45.528;9.234;2022-11-20T04:21:20;25.27;;;13.70;;
40669;SDS011;26355;45.528;9.234;2022-11-20T04:23:45;24.05;;;12.80;;
40669;SDS011;26355;45.528;9.234;2022-11-20T04:26:11;24.98;;;12.98;;
40669;SDS011;26355;45.528;9.234;2022-11-20T04:28:37;24.10;;;12.52;;
40669;SDS011;26355;45.528;9.234;2022-11-20T04:33:31;24.57;;;12.60;;
40669;SDS011;26355;45.528;9.234;2022-11-20T04:35:59;25.65;;;12.68;;
40669;SDS011;26355;45.528;9.234;2022-11-20T04:38:29;23.38;;;12.48;;
40669;SDS011;26355;45.528;9.234;2022-11-20T04:40:56;25.58;;;12.82;;
40669;SDS011;26355;45.528;9.234;2022-11-20T04:43:23;25.60;;;13.55;;
40669;SDS011;26355;45.528;9.234;2022-11-20T04:45:52;23.45;;;12.98;;
40669;SDS011;26355;45.528;9.234;2022-11-20T04:48:19;23.35;;;12.45;;
40669;SDS011;26355;45.528;9.234;2022-11-20T04:50:44;23.67;;;12.45;;
40669;SDS011;26355;45.528;9.234;2022-11-20T04:53:10;26.58;;;13.77;;
40669;SDS011;26355;45.528;9.234;2022-11-20T04:55:36;24.00;;;12.80;;
40669;SDS011;26355;45.528;9.234;2022-11-20T04:58:01;24.60;;;13.23;;
40669;SDS011;26355;45.528;9.234;2022-11-20T05:00:27;25.40;;;12.75;;
40669;SDS011;26355;45.528;9.234;2022-11-20T05:02:53;25.55;;;12.95;;
40669;SDS011;26355;45.528;9.234;2022-11-20T05:05:18;24.20;;;11.70;;
40669;SDS011;26355;45.528;9.234;2022-11-20T05:07:44;22.48;;;11.20;;
40669;SDS011;26355;45.528;9.234;2022-11-20T05:10:09;23.08;;;11.30;;
40669;SDS011;26355;45.528;9.234;2022-11-20T05:12:35;21.80;;;11.48;;
40669;SDS011;26355;45.528;9.234;2022-11-20T05:15:01;22.63;;;11.02;;
40669;SDS011;26355;45.528;9.234;2022-11-20T05:17:26;23.42;;;11.98;;
40669;SDS011;26355;45.528;9.234;2022-11-20T05:19:52;21.13;;;10.13;;
40669;SDS011;26355;45.528;9.234;2022-11-20T05:22:18;21.90;;;10.80;;
40669;SDS011;26355;45.528;9.234;2022-11-20T05:24:43;21.05;;;10.45;;
40669;SDS011;26355;45.528;9.234;2022-11-20T05:27:09;21.85;;;9.95;;
40669;SDS011;26355;45.528;9.234;2022-11-20T05:29:35;20.65;;;9.90;;
40669;SDS011;26355;45.528;9.234;2022-11-20T05:32:00;22.85;;;11.15;;
40669;SDS011;26355;45.528;9.234;2022-11-20T05:34:26;22.85;;;10.35;;
40669;SDS011;26355;45.528;9.234;2022-11-20T05:36:51;21.58;;;10.38;;
40669;SDS011;26355;45.528;9.234;2022-11-20T05:39:17;22.40;;;10.80;;
40669;SDS011;26355;45.528;9.234;2022-11-20T05:41:43;20.45;;;9.75;;
40669;SDS011;26355;45.528;9.234;2022-11-20T05:44:11;21.02;;;10.40;;
40669;SDS011;26355;45.528;9.234;2022-11-20T05:46:38;22.10;;;10.68;;
40669;SDS011;26355;45.528;9.234;2022-11-20T05:49:03;21.08;;;9.93;;
40669;SDS011;26355;45.528;9.234;2022-11-20T05:51:29;20.92;;;9.63;;
40669;SDS011;26355;45.528;9.234;2022-11-20T05:53:58;22.13;;;9.65;;
40669;SDS011;26355;45.528;9.234;2022-11-20T05:56:23;18.77;;;8.65;;
40669;SDS011;26355;45.528;9.234;2022-11-20T05:58:49;21.67;;;8.90;;
40669;SDS011;26355;45.528;9.234;2022-11-20T06:01:21;19.20;;;8.02;;
40669;SDS011;26355;45.528;9.234;2022-11-20T06:03:49;19.58;;;8.80;;
40669;SDS011;26355;45.528;9.234;2022-11-20T06:06:15;19.87;;;8.20;;
40669;SDS011;26355;45.528;9.234;2022-11-20T06:08:42;18.73;;;8.73;;
40669;SDS011;26355;45.528;9.234;2022-11-20T06:11:09;18.70;;;8.43;;
40669;SDS011;26355;45.528;9.234;2022-11-20T06:13:36;18.13;;;7.97;;
40669;SDS011;26355;45.528;9.234;2022-11-20T06:16:02;19.48;;;8.40;;
40669;SDS011;26355;45.528;9.234;2022-11-20T06:18:28;18.40;;;8.05;;
40669;SDS011;26355;45.528;9.234;2022-11-20T06:21:02;19.23;;;8.23;;
40669;SDS011;26355;45.528;9.234;2022-11-20T06:23:38;20.05;;;8.15;;
40669;SDS011;26355;45.528;9.234;2022-11-20T06:26:06;19.48;;;8.55;;
40669;SDS011;26355;45.528;9.234;2022-11-20T06:28:33;18.88;;;8.30;;
40669;SDS011;26355;45.528;9.234;2022-11-20T06:30:59;21.08;;;8.48;;
40669;SDS011;26355;45.528;9.234;2022-11-20T06:33:24;17.70;;;7.63;;
40669;SDS011;26355;45.528;9.234;2022-11-20T06:35:50;18.13;;;7.15;;
40669;SDS011;26355;45.528;9.234;2022-11-20T06:38:16;18.77;;;7.88;;
40669;SDS011;26355;45.528;9.234;2022-11-20T06:40:42;18.92;;;7.78;;
40669;SDS011;26355;45.528;9.234;2022-11-20T06:43:11;18.13;;;7.88;;
40669;SDS011;26355;45.528;9.234;2022-11-20T06:45:36;17.95;;;7.38;;
40669;SDS011;26355;45.528;9.234;2022-11-20T06:48:03;17.48;;;7.35;;
40669;SDS011;26355;45.528;9.234;2022-11-20T06:50:28;16.30;;;6.32;;
40669;SDS011;26355;45.528;9.234;2022-11-20T06:52:54;17.23;;;6.95;;
40669;SDS011;26355;45.528;9.234;2022-11-20T06:55:20;15.70;;;6.18;;
40669;SDS011;26355;45.528;9.234;2022-11-20T06:57:46;15.98;;;6.47;;
40669;SDS011;26355;45.528;9.234;2022-11-20T07:00:11;17.75;;;6.97;;
40669;SDS011;26355;45.528;9.234;2022-11-20T07:02:38;15.18;;;5.93;;
40669;SDS011;26355;45.528;9.234;2022-11-20T07:05:04;16.40;;;6.53;;
40669;SDS011;26355;45.528;9.234;2022-11-20T07:07:30;18.20;;;6.30;;
40669;SDS011;26355;45.528;9.234;2022-11-20T07:09:55;15.60;;;6.30;;
40669;SDS011;26355;45.528;9.234;2022-11-20T07:12:21;16.13;;;5.93;;
40669;SDS011;26355;45.528;9.234;2022-11-20T07:14:46;16.15;;;6.35;;
40669;SDS011;26355;45.528;9.234;2022-11-20T07:17:12;18.40;;;6.75;;
40669;SDS011;26355;45.528;9.234;2022-11-20T07:19:38;17.02;;;6.60;;
40669;SDS011;26355;45.528;9.234;2022-11-20T07:22:04;16.15;;;5.78;;
40669;SDS011;26355;45.528;9.234;2022-11-20T07:24:29;16.65;;;5.70;;
40669;SDS011;26355;45.528;9.234;2022-11-20T07:26:55;17.45;;;6.13;;
40669;SDS011;26355;45.528;9.234;2022-11-20T07:29:21;16.70;;;6.07;;
40669;SDS011;26355;45.528;9.234;2022-11-20T07:31:46;14.15;;;5.47;;
40669;SDS011;26355;45.528;9.234;2022-11-20T07:34:12;15.57;;;6.15;;
40669;SDS011;26355;45.528;9.234;2022-11-20T07:36:38;18.13;;;5.82;;
40669;SDS011;26355;45.528;9.234;2022-11-20T07:39:04;15.93;;;5.93;;
40669;SDS011;26355;45.528;9.234;2022-11-20T07:41:30;16.58;;;5.75;;
40669;SDS011;26355;45.528;9.234;2022-11-20T07:43:56;16.25;;;5.32;;
40669;SDS011;26355;45.528;9.234;2022-11-20T07:46:21;14.95;;;5.22;;
40669;SDS011;26355;45.528;9.234;2022-11-20T07:48:47;14.65;;;5.22;;
40669;SDS011;26355;45.528;9.234;2022-11-20T07:51:13;15.27;;;4.97;;
40669;SDS011;26355;45.528;9.234;2022-11-20T07:53:38;14.10;;;4.60;;
40669;SDS011;26355;45.528;9.234;2022-11-20T07:56:04;16.40;;;4.80;;
40669;SDS011;26355;45.528;9.234;2022-11-20T07:58:30;14.50;;;5.65;;
40669;SDS011;26355;45.528;9.234;2022-11-20T08:01:02;13.63;;;5.22;;
40669;SDS011;26355;45.528;9.234;2022-11-20T08:03:29;13.80;;;5.20;;
40669;SDS011;26355;45.528;9.234;2022-11-20T08:05:57;17.17;;;5.80;;
40669;SDS011;26355;45.528;9.234;2022-11-20T08:08:25;14.85;;;4.97;;
40669;SDS011;26355;45.528;9.234;2022-11-20T08:10:51;14.30;;;4.90;;
40669;SDS011;26355;45.528;9.234;2022-11-20T08:13:17;18.52;;;5.93;;
40669;SDS011;26355;45.528;9.234;2022-11-20T08:16:01;17.42;;;6.30;;
40669;SDS011;26355;45.528;9.234;2022-11-20T08:18:27;14.27;;;5.18;;
40669;SDS011;26355;45.528;9.234;2022-11-20T08:20:52;14.80;;;5.55;;
40669;SDS011;26355;45.528;9.234;2022-11-20T08:23:18;15.20;;;6.18;;
40669;SDS011;26355;45.528;9.234;2022-11-20T08:25:48;14.05;;;5.32;;
40669;SDS011;26355;45.528;9.234;2022-11-20T08:28:14;15.23;;;5.18;;
40669;SDS011;26355;45.528;9.234;2022-11-20T08:30:40;14.27;;;5.35;;
40669;SDS011;26355;45.528;9.234;2022-11-20T08:33:07;14.60;;;5.50;;
40669;SDS011;26355;45.528;9.234;2022-11-20T08:35:34;13.95;;;5.03;;
40669;SDS011;26355;45.528;9.234;2022-11-20T08:38:02;16.05;;;5.70;;
40669;SDS011;26355;45.528;9.234;2022-11-20T08:40:28;15.27;;;5.70;;
40669;SDS011;26355;45.528;9.234;2022-11-20T08:42:54;15.20;;;5.45;;
40669;SDS011;26355;45.528;9.234;2022-11-20T08:45:20;14.75;;;5.65;;
40669;SDS011;26355;45.528;9.234;2022-11-20T08:47:45;14.82;;;5.60;;
40669;SDS011;26355;45.528;9.234;2022-11-20T08:50:12;17.00;;;6.45;;
40669;SDS011;26355;45.528;9.234;2022-11-20T08:52:39;13.35;;;4.80;;
40669;SDS011;26355;45.528;9.234;2022-11-20T08:55:05;14.18;;;5.40;;
40669;SDS011;26355;45.528;9.234;2022-11-20T08:57:32;16.30;;;5.63;;
40669;SDS011;26355;45.528;9.234;2022-11-20T09:00:02;15.13;;;5.07;;
40669;SDS011;26355;45.528;9.234;2022-11-20T09:02:29;14.00;;;5.30;;
40669;SDS011;26355;45.528;9.234;2022-11-20T09:04:54;13.50;;;4.75;;
40669;SDS011;26355;45.528;9.234;2022-11-20T09:07:20;12.68;;;4.35;;
40669;SDS011;26355;45.528;9.234;2022-11-20T09:09:46;11.98;;;4.57;;
40669;SDS011;26355;45.528;9.234;2022-11-20T09:12:12;12.68;;;4.43;;
40669;SDS011;26355;45.528;9.234;2022-11-20T09:14:38;14.68;;;4.53;;
40669;SDS011;26355;45.528;9.234;2022-11-20T09:17:04;12.95;;;4.70;;
40669;SDS011;26355;45.528;9.234;2022-11-20T09:19:30;13.95;;;4.63;;
40669;SDS011;26355;45.528;9.234;2022-11-20T09:21:55;12.05;;;4.38;;
40669;SDS011;26355;45.528;9.234;2022-11-20T09:24:21;14.02;;;4.75;;
40669;SDS011;26355;45.528;9.234;2022-11-20T09:26:47;11.55;;;3.97;;
40669;SDS011;26355;45.528;9.234;2022-11-20T09:29:12;10.75;;;3.90;;
40669;SDS011;26355;45.528;9.234;2022-11-20T09:31:38;12.75;;;4.30;;
40669;SDS011;26355;45.528;9.234;2022-11-20T09:34:04;13.18;;;4.57;;
40669;SDS011;26355;45.528;9.234;2022-11-20T09:36:30;13.27;;;4.32;;
40669;SDS011;26355;45.528;9.234;2022-11-20T09:38:55;13.13;;;4.22;;
40669;SDS011;26355;45.528;9.234;2022-11-20T09:46:58;13.73;;;4.60;;
40669;SDS011;26355;45.528;9.234;2022-11-20T09:52:19;13.25;;;4.90;;
40669;SDS011;26355;45.528;9.234;2022-11-20T09:54:55;13.18;;;4.30;;
40669;SDS011;26355;45.528;9.234;2022-11-20T09:57:22;13.93;;;4.38;;
40669;SDS011;26355;45.528;9.234;2022-11-20T10:00:00;9.90;;;3.20;;
40669;SDS011;26355;45.528;9.234;2022-11-20T10:02:32;12.18;;;3.75;;
40669;SDS011;26355;45.528;9.234;2022-11-20T10:05:08;13.13;;;4.30;;
40669;SDS011;26355;45.528;9.234;2022-11-20T10:07:53;14.52;;;4.53;;
40669;SDS011;26355;45.528;9.234;2022-11-20T10:21:49;14.18;;;5.63;;
40669;SDS011;26355;45.528;9.234;2022-11-20T10:24:42;13.48;;;4.55;;
40669;SDS011;26355;45.528;9.234;2022-11-20T10:32:38;13.68;;;4.78;;
40669;SDS011;26355;45.528;9.234;2022-11-20T10:37:41;12.93;;;4.25;;
40669;SDS011;26355;45.528;9.234;2022-11-20T10:43:02;14.82;;;5.03;;
40669;SDS011;26355;45.528;9.234;2022-11-20T10:48:21;15.90;;;5.32;;
40669;SDS011;26355;45.528;9.234;2022-11-20T10:51:04;13.55;;;5.07;;
40669;SDS011;26355;45.528;9.234;2022-11-20T10:57:00;16.25;;;5.90;;
40669;SDS011;26355;45.528;9.234;2022-11-20T11:02:18;14.98;;;5.43;;
40669;SDS011;26355;45.528;9.234;2022-11-20T11:04:45;15.02;;;5.88;;
40669;SDS011;26355;45.528;9.234;2022-11-20T11:09:50;14.45;;;6.35;;
40669;SDS011;26355;45.528;9.234;2022-11-20T11:12:19;15.13;;;6.38;;
40669;SDS011;26355;45.528;9.234;2022-11-20T11:14:53;17.10;;;6.88;;
40669;SDS011;26355;45.528;9.234;2022-11-20T11:17:30;14.73;;;5.82;;
40669;SDS011;26355;45.528;9.234;2022-11-20T11:20:00;15.33;;;6.30;;
40669;SDS011;26355;45.528;9.234;2022-11-20T11:22:50;15.00;;;6.28;;
40669;SDS011;26355;45.528;9.234;2022-11-20T11:25:55;14.68;;;5.88;;
40669;SDS011;26355;45.528;9.234;2022-11-20T11:28:21;14.43;;;5.70;;
40669;SDS011;26355;45.528;9.234;2022-11-20T11:30:49;15.57;;;5.85;;
40669;SDS011;26355;45.528;9.234;2022-11-20T11:33:22;16.33;;;6.50;;
40669;SDS011;26355;45.528;9.234;2022-11-20T11:35:56;14.98;;;6.05;;
40669;SDS011;26355;45.528;9.234;2022-11-20T11:40:59;17.52;;;6.45;;
40669;SDS011;26355;45.528;9.234;2022-11-20T11:43:28;17.33;;;7.90;;
40669;SDS011;26355;45.528;9.234;2022-11-20T11:48:58;18.58;;;9.85;;
40669;SDS011;26355;45.528;9.234;2022-11-20T11:51:26;19.27;;;9.48;;
40669;SDS011;26355;45.528;9.234;2022-11-20T11:54:16;20.90;;;9.90;;
40669;SDS011;26355;45.528;9.234;2022-11-20T11:56:47;19.38;;;9.90;;
40669;SDS011;26355;45.528;9.234;2022-11-20T11:59:24;17.77;;;9.60;;
40669;SDS011;26355;45.528;9.234;2022-11-20T12:05:21;17.80;;;8.80;;
40669;SDS011;26355;45.528;9.234;2022-11-20T12:07:58;18.05;;;8.57;;
40669;SDS011;26355;45.528;9.234;2022-11-20T12:10:43;16.60;;;7.82;;
40669;SDS011;26355;45.528;9.234;2022-11-20T12:16:35;16.70;;;7.63;;
40669;SDS011;26355;45.528;9.234;2022-11-20T12:19:03;18.20;;;7.55;;
40669;SDS011;26355;45.528;9.234;2022-11-20T12:21:47;18.85;;;8.43;;
40669;SDS011;26355;45.528;9.234;2022-11-20T12:27:23;17.00;;;7.65;;
40669;SDS011;26355;45.528;9.234;2022-11-20T12:30:07;16.08;;;7.20;;
40669;SDS011;26355;45.528;9.234;2022-11-20T12:35:42;17.30;;;7.95;;
40669;SDS011;26355;45.528;9.234;2022-11-20T12:43:21;17.75;;;8.50;;
40669;SDS011;26355;45.528;9.234;2022-11-20T12:48:37;19.05;;;9.35;;
40669;SDS011;26355;45.528;9.234;2022-11-20T12:51:29;17.63;;;8.80;;
40669;SDS011;26355;45.528;9.234;2022-11-20T12:54:26;18.92;;;8.57;;
40669;SDS011;26355;45.528;9.234;2022-11-20T12:57:07;18.90;;;9.73;;
40669;SDS011;26355;45.528;9.234;2022-11-20T13:08:24;18.80;;;8.75;;
40669;SDS011;26355;45.528;9.234;2022-11-20T13:11:01;18.38;;;7.70;;
40669;SDS011;26355;45.528;9.234;2022-11-20T13:13:43;17.42;;;7.57;;
40669;SDS011;26355;45.528;9.234;2022-11-20T13:18:56;16.63;;;6.82;;
40669;SDS011;26355;45.528;9.234;2022-11-20T13:26:32;18.55;;;7.40;;
40669;SDS011;26355;45.528;9.234;2022-11-20T13:29:00;19.63;;;7.63;;
40669;SDS011;26355;45.528;9.234;2022-11-20T13:31:33;17.45;;;7.70;;
40669;SDS011;26355;45.528;9.234;2022-11-20T13:34:01;17.38;;;7.30;;
40669;SDS011;26355;45.528;9.234;2022-11-20T13:36:29;17.92;;;7.03;;
40669;SDS011;26355;45.528;9.234;2022-11-20T13:38:56;18.10;;;7.60;;
40669;SDS011;26355;45.528;9.234;2022-11-20T13:41:23;16.85;;;7.32;;
40669;SDS011;26355;45.528;9.234;2022-11-20T13:46:47;17.05;;;6.85;;
40669;SDS011;26355;45.528;9.234;2022-11-20T13:49:26;16.85;;;7.53;;
40669;SDS011;26355;45.528;9.234;2022-11-20T13:52:03;16.35;;;6.80;;
40669;SDS011;26355;45.528;9.234;2022-11-20T14:00:17;17.60;;;7.32;;
40669;SDS011;26355;45.528;9.234;2022-11-20T14:05:31;16.58;;;6.28;;
40669;SDS011;26355;45.528;9.234;2022-11-20T14:08:02;17.35;;;7.10;;
40669;SDS011;26355;45.528;9.234;2022-11-20T14:10:30;17.15;;;6.63;;
40669;SDS011;26355;45.528;9.234;2022-11-20T14:12:56;15.40;;;5.97;;
40669;SDS011;26355;45.528;9.234;2022-11-20T14:15:30;14.85;;;5.57;;
40669;SDS011;26355;45.528;9.234;2022-11-20T14:17:58;14.10;;;5.68;;
40669;SDS011;26355;45.528;9.234;2022-11-20T14:20:25;13.80;;;5.05;;
40669;SDS011;26355;45.528;9.234;2022-11-20T14:22:56;14.52;;;5.68;;
40669;SDS011;26355;45.528;9.234;2022-11-20T14:25:23;16.10;;;5.28;;
40669;SDS011;26355;45.528;9.234;2022-11-20T14:27:59;14.35;;;5.45;;
40669;SDS011;26355;45.528;9.234;2022-11-20T14:30:35;14.50;;;5.10;;
40669;SDS011;26355;45.528;9.234;2022-11-20T14:33:10;14.32;;;4.97;;
40669;SDS011;26355;45.528;9.234;2022-11-20T14:38:11;12.23;;;4.20;;
40669;SDS011;26355;45.528;9.234;2022-11-20T14:40:43;12.80;;;4.20;;
40669;SDS011;26355;45.528;9.234;2022-11-20T14:43:16;14.07;;;4.63;;
40669;SDS011;26355;45.528;9.234;2022-11-20T14:45:56;13.90;;;4.05;;
40669;SDS011;26355;45.528;9.234;2022-11-20T14:48:57;12.15;;;4.20;;
40669;SDS011;26355;45.528;9.234;2022-11-20T14:51:27;10.02;;;3.90;;
40669;SDS011;26355;45.528;9.234;2022-11-20T14:53:53;11.02;;;3.25;;
40669;SDS011;26355;45.528;9.234;2022-11-20T14:56:23;10.35;;;3.20;;
40669;SDS011;26355;45.528;9.234;2022-11-20T14:58:58;7.03;;;2.72;;
40669;SDS011;26355;45.528;9.234;2022-11-20T15:01:27;8.73;;;3.10;;
40669;SDS011;26355;45.528;9.234;2022-11-20T15:04:02;10.85;;;3.40;;
40669;SDS011;26355;45.528;9.234;2022-11-20T15:06:32;8.40;;;3.00;;
40669;SDS011;26355;45.528;9.234;2022-11-20T15:08:58;11.32;;;3.00;;
40669;SDS011;26355;45.528;9.234;2022-11-20T15:11:31;11.55;;;3.20;;
40669;SDS011;26355;45.528;9.234;2022-11-20T15:14:03;10.23;;;3.42;;
40669;SDS011;26355;45.528;9.234;2022-11-20T15:16:30;11.27;;;3.22;;
40669;SDS011;26355;45.528;9.234;2022-11-20T15:18:56;12.30;;;3.65;;
40669;SDS011;26355;45.528;9.234;2022-11-20T15:21:22;10.02;;;3.30;;
40669;SDS011;26355;45.528;9.234;2022-11-20T15:23:48;11.02;;;3.35;;
40669;SDS011;26355;45.528;9.234;2022-11-20T15:26:14;10.80;;;3.53;;
40669;SDS011;26355;45.528;9.234;2022-11-20T15:28:51;13.23;;;4.05;;
40669;SDS011;26355;45.528;9.234;2022-11-20T15:31:23;10.50;;;3.35;;
40669;SDS011;26355;45.528;9.234;2022-11-20T15:33:49;12.60;;;4.13;;
40669;SDS011;26355;45.528;9.234;2022-11-20T15:36:15;11.48;;;3.20;;
40669;SDS011;26355;45.528;9.234;2022-11-20T15:38:41;12.85;;;3.92;;
40669;SDS011;26355;45.528;9.234;2022-11-20T15:41:07;13.75;;;3.72;;
40669;SDS011;26355;45.528;9.234;2022-11-20T15:43:32;13.90;;;4.28;;
40669;SDS011;26355;45.528;9.234;2022-11-20T15:46:02;11.95;;;3.58;;
40669;SDS011;26355;45.528;9.234;2022-11-20T15:48:31;12.93;;;4.15;;
40669;SDS011;26355;45.528;9.234;2022-11-20T15:53:39;13.68;;;4.15;;
40669;SDS011;26355;45.528;9.234;2022-11-20T15:56:06;12.35;;;3.42;;
40669;SDS011;26355;45.528;9.234;2022-11-20T15:58:37;14.35;;;4.93;;
40669;SDS011;26355;45.528;9.234;2022-11-20T16:01:03;15.65;;;5.35;;
40669;SDS011;26355;45.528;9.234;2022-11-20T16:03:29;15.25;;;5.15;;
40669;SDS011;26355;45.528;9.234;2022-11-20T16:05:55;13.77;;;4.30;;
40669;SDS011;26355;45.528;9.234;2022-11-20T16:08:20;15.98;;;4.47;;
40669;SDS011;26355;45.528;9.234;2022-11-20T16:10:46;15.63;;;4.50;;
40669;SDS011;26355;45.528;9.234;2022-11-20T16:13:15;14.55;;;4.22;;
40669;SDS011;26355;45.528;9.234;2022-11-20T16:16:02;13.27;;;3.70;;
40669;SDS011;26355;45.528;9.234;2022-11-20T16:18:30;13.52;;;4.10;;
40669;SDS011;26355;45.528;9.234;2022-11-20T16:20:56;14.27;;;4.10;;
40669;SDS011;26355;45.528;9.234;2022-11-20T16:23:22;13.18;;;3.83;;
40669;SDS011;26355;45.528;9.234;2022-11-20T16:25:48;14.75;;;4.50;;
40669;SDS011;26355;45.528;9.234;2022-11-20T16:28:15;14.87;;;4.20;;
40669;SDS011;26355;45.528;9.234;2022-11-20T16:30:41;16.08;;;4.97;;